createdAt,value
2017-08-12T00:01:32.447Z,20.10
2017-08-12T00:03:59.582Z,20.40
2017-08-12T00:06:25.971Z,20.30
2017-08-12T00:08:52.429Z,20.30
2017-08-12T00:11:18.827Z,20.20
2017-08-12T00:13:45.197Z,20.00
2017-08-12T00:16:11.602Z,19.80
2017-08-12T00:18:38.043Z,19.70
2017-08-12T00:21:04.447Z,19.70
2017-08-12T00:23:30.885Z,19.80
2017-08-12T00:25:57.330Z,19.80
2017-08-12T00:28:23.756Z,19.90
2017-08-12T00:30:50.179Z,20.00
2017-08-12T00:33:16.586Z,20.00
2017-08-12T00:35:43.750Z,19.70
2017-08-12T00:38:10.184Z,19.70
2017-08-12T00:40:36.603Z,19.80
2017-08-12T00:43:03.737Z,19.70
2017-08-12T00:45:30.175Z,19.70
2017-08-12T00:47:56.564Z,19.60
2017-08-12T00:50:23.040Z,19.60
2017-08-12T00:52:49.472Z,19.60
2017-08-12T00:55:15.875Z,19.60
2017-08-12T00:57:42.270Z,19.70
2017-08-12T01:00:08.789Z,19.80
2017-08-12T01:02:35.939Z,19.60
2017-08-12T01:05:03.083Z,19.60
2017-08-12T01:07:29.459Z,19.50
2017-08-12T01:09:55.903Z,19.60
2017-08-12T01:12:22.280Z,19.60
2017-08-12T01:14:49.428Z,19.50
2017-08-12T01:17:16.547Z,19.50
2017-08-12T01:19:42.979Z,19.50
2017-08-12T01:22:09.356Z,19.50
2017-08-12T01:24:36.511Z,19.20
2017-08-12T01:27:02.972Z,19.20
2017-08-12T01:29:29.397Z,19.10
2017-08-12T01:31:55.762Z,19.20
2017-08-12T01:34:22.166Z,19.10
2017-08-12T01:36:48.548Z,19.20
2017-08-12T01:39:15.766Z,19.10
2017-08-12T01:41:42.136Z,19.10
2017-08-12T01:44:09.311Z,19.10
2017-08-12T01:46:35.695Z,19.00
2017-08-12T01:49:02.083Z,18.80
2017-08-12T01:51:28.484Z,18.80
2017-08-12T01:53:55.591Z,19.00
2017-08-12T01:56:22.011Z,19.00
2017-08-12T01:58:48.439Z,19.10
2017-08-12T02:01:14.827Z,19.20
2017-08-12T02:03:41.967Z,19.10
2017-08-12T02:06:08.343Z,19.00
2017-08-12T02:08:34.830Z,19.10
2017-08-12T02:11:01.212Z,19.20
2017-08-12T02:13:27.599Z,19.20
2017-08-12T02:15:54.058Z,19.20
2017-08-12T02:18:20.495Z,19.30
2017-08-12T02:20:46.871Z,19.20
2017-08-12T02:23:13.261Z,19.30
2017-08-12T02:25:39.671Z,19.20
2017-08-12T02:28:06.814Z,19.20
2017-08-12T02:30:33.195Z,19.20
2017-08-12T02:32:59.616Z,19.20
2017-08-12T02:35:26.000Z,19.20
2017-08-12T02:37:52.370Z,19.20
2017-08-12T02:40:18.843Z,19.20
2017-08-12T02:42:45.219Z,19.20
2017-08-12T02:45:12.369Z,19.20
2017-08-12T02:47:39.507Z,19.20
2017-08-12T02:50:05.988Z,19.20
2017-08-12T02:52:32.373Z,19.20
2017-08-12T02:54:59.491Z,19.30
2017-08-12T02:57:25.874Z,19.20
2017-08-12T02:59:53.046Z,19.20
2017-08-12T03:02:19.443Z,19.20
2017-08-12T03:04:46.561Z,19.20
2017-08-12T03:07:12.968Z,19.20
2017-08-12T03:09:39.430Z,19.20
2017-08-12T03:12:05.807Z,19.20
2017-08-12T03:14:32.187Z,19.20
2017-08-12T03:16:58.603Z,19.20
2017-08-12T03:19:25.023Z,19.20
2017-08-12T03:21:51.428Z,19.20
2017-08-12T03:24:18.562Z,19.10
2017-08-12T03:26:44.927Z,19.10
2017-08-12T03:29:11.398Z,19.10
2017-08-12T03:31:37.771Z,19.10
2017-08-12T03:34:04.892Z,19.00
2017-08-12T03:36:31.288Z,19.00
2017-08-12T03:38:57.714Z,18.90
2017-08-12T03:41:24.098Z,18.90
2017-08-12T03:43:50.511Z,18.90
2017-08-12T03:46:16.915Z,18.80
2017-08-12T03:48:43.347Z,18.70
2017-08-12T03:51:09.776Z,18.70
2017-08-12T03:53:36.157Z,18.70
2017-08-12T03:56:02.536Z,18.60
2017-08-12T03:58:28.999Z,18.60
2017-08-12T04:00:55.362Z,18.50
2017-08-12T04:03:21.768Z,18.50
2017-08-12T04:05:48.251Z,18.60
2017-08-12T04:08:15.424Z,18.40
2017-08-12T04:10:41.806Z,18.40
2017-08-12T04:13:08.197Z,18.40
2017-08-12T04:15:34.591Z,18.50
2017-08-12T04:18:01.739Z,18.50
2017-08-12T04:20:28.923Z,18.50
2017-08-12T04:22:55.334Z,18.50
2017-08-12T04:25:21.743Z,18.50
2017-08-12T04:27:48.864Z,18.40
2017-08-12T04:30:15.260Z,18.40
2017-08-12T04:32:41.663Z,18.40
2017-08-12T04:35:08.815Z,18.40
2017-08-12T04:37:35.930Z,18.40
2017-08-12T04:40:02.371Z,18.30
2017-08-12T04:42:28.740Z,18.30
2017-08-12T04:44:55.887Z,18.30
2017-08-12T04:47:22.999Z,18.30
2017-08-12T04:49:49.507Z,18.40
2017-08-12T04:52:15.895Z,18.30
2017-08-12T04:54:43.036Z,18.40
2017-08-12T04:57:10.190Z,18.40
2017-08-12T04:59:37.384Z,18.40
2017-08-12T05:02:03.795Z,18.40
2017-08-12T05:04:30.207Z,18.50
2017-08-12T05:06:57.320Z,18.60
2017-08-12T05:09:23.730Z,18.60
2017-08-12T05:11:50.116Z,18.60
2017-08-12T05:14:17.266Z,18.60
2017-08-12T05:16:44.387Z,18.70
2017-08-12T05:19:10.799Z,18.70
2017-08-12T05:21:38.052Z,18.70
2017-08-12T05:24:04.476Z,18.70
2017-08-12T05:26:30.891Z,18.70
2017-08-12T05:28:57.379Z,18.70
2017-08-12T05:31:23.791Z,18.80
2017-08-12T05:33:50.166Z,18.80
2017-08-12T05:36:17.316Z,18.80
2017-08-12T05:38:44.518Z,18.90
2017-08-12T05:41:10.935Z,18.90
2017-08-12T05:43:37.316Z,18.90
2017-08-12T05:46:03.732Z,19.00
2017-08-12T05:48:30.263Z,19.00
2017-08-12T05:50:56.708Z,19.10
2017-08-12T05:53:23.136Z,19.30
2017-08-12T05:55:49.616Z,19.30
2017-08-12T05:58:16.076Z,19.40
2017-08-12T06:00:42.516Z,19.40
2017-08-12T06:03:08.875Z,19.50
2017-08-12T06:05:35.320Z,19.50
2017-08-12T06:08:01.716Z,19.60
2017-08-12T06:10:28.134Z,19.60
2017-08-12T06:12:54.525Z,19.70
2017-08-12T06:15:21.625Z,19.80
2017-08-12T06:17:48.025Z,19.80
2017-08-12T06:20:14.499Z,19.80
2017-08-12T06:22:40.887Z,19.90
2017-08-12T06:25:08.001Z,19.90
2017-08-12T06:27:34.390Z,19.90
2017-08-12T06:30:00.831Z,20.00
2017-08-12T06:32:27.270Z,19.90
2017-08-12T06:34:53.651Z,20.00
2017-08-12T06:37:20.766Z,20.00
2017-08-12T06:39:47.210Z,20.00
2017-08-12T06:42:13.583Z,20.00
2017-08-12T06:44:40.028Z,19.90
2017-08-12T06:47:06.437Z,19.90
2017-08-12T06:49:33.654Z,19.90
2017-08-12T06:52:00.075Z,19.90
2017-08-12T06:54:26.474Z,20.00
2017-08-12T06:56:52.879Z,19.90
2017-08-12T06:59:20.111Z,20.00
2017-08-12T07:01:47.057Z,20.00
2017-08-12T07:04:13.448Z,20.10
2017-08-12T07:06:39.843Z,20.10
2017-08-12T07:09:07.091Z,20.20
2017-08-12T07:11:33.603Z,20.20
2017-08-12T07:14:00.063Z,20.40
2017-08-12T07:16:26.644Z,20.40
2017-08-12T07:18:53.083Z,20.40
2017-08-12T07:21:19.551Z,20.40
2017-08-12T07:23:45.967Z,20.50
2017-08-12T07:26:12.368Z,20.50
2017-08-12T07:28:39.062Z,20.50
2017-08-12T07:31:06.403Z,20.60
2017-08-12T07:33:33.617Z,20.70
2017-08-12T07:36:00.063Z,20.70
2017-08-12T07:38:26.736Z,20.70
2017-08-12T07:40:53.975Z,20.90
2017-08-12T07:43:20.375Z,20.90
2017-08-12T07:45:46.775Z,20.90
2017-08-12T07:48:14.271Z,21.00
2017-08-12T07:50:41.606Z,21.10
2017-08-12T07:53:08.005Z,21.10
2017-08-12T07:55:35.582Z,21.10
2017-08-12T07:58:02.075Z,21.20
2017-08-12T08:00:28.479Z,21.30
2017-08-12T08:02:54.911Z,21.30
2017-08-12T08:05:21.329Z,21.30
2017-08-12T08:07:47.728Z,21.20
2017-08-12T08:10:14.206Z,21.20
2017-08-12T08:12:40.639Z,21.20
2017-08-12T08:15:07.049Z,21.20
2017-08-12T08:17:33.475Z,21.30
2017-08-12T08:20:00.720Z,21.40
2017-08-12T08:22:27.202Z,21.40
2017-08-12T08:24:53.618Z,21.40
2017-08-12T08:27:20.034Z,21.40
2017-08-12T08:29:46.492Z,21.40
2017-08-12T08:32:14.360Z,21.50
2017-08-12T08:34:40.739Z,21.60
2017-08-12T08:37:07.152Z,21.60
2017-08-12T08:39:33.576Z,21.60
2017-08-12T08:42:00.923Z,21.80
2017-08-12T08:44:27.338Z,21.90
2017-08-12T08:46:53.722Z,21.90
2017-08-12T08:49:20.239Z,21.80
2017-08-12T08:51:47.563Z,21.70
2017-08-12T08:54:13.977Z,21.70
2017-08-12T08:56:40.388Z,21.70
2017-08-12T08:59:07.578Z,21.70
2017-08-12T09:01:33.950Z,21.70
2017-08-12T09:04:00.352Z,21.80
2017-08-12T09:06:26.767Z,21.90
2017-08-12T09:08:53.238Z,21.90
2017-08-12T09:11:19.622Z,22.00
2017-08-12T09:13:46.028Z,22.00
2017-08-12T09:16:12.444Z,22.10
2017-08-12T09:18:38.878Z,22.10
2017-08-12T09:21:05.256Z,22.10
2017-08-12T09:23:31.633Z,22.10
2017-08-12T09:25:58.030Z,22.20
2017-08-12T09:28:24.459Z,22.20
2017-08-12T09:30:50.859Z,22.20
2017-08-12T09:33:18.077Z,22.20
2017-08-12T09:35:44.587Z,22.10
2017-08-12T09:38:11.003Z,22.20
2017-08-12T09:40:37.411Z,22.20
2017-08-12T09:43:04.602Z,22.20
2017-08-12T09:45:31.004Z,22.10
2017-08-12T09:47:57.411Z,22.20
2017-08-12T09:50:23.894Z,22.40
2017-08-12T09:52:50.355Z,22.50
2017-08-12T09:55:16.740Z,22.50
2017-08-12T09:57:43.151Z,22.50
2017-08-12T10:00:10.487Z,22.50
2017-08-12T10:02:36.908Z,22.50
2017-08-12T10:05:03.315Z,22.60
2017-08-12T10:07:29.717Z,22.50
2017-08-12T10:09:56.195Z,22.50
2017-08-12T10:12:22.606Z,22.50
2017-08-12T10:14:49.020Z,22.60
2017-08-12T10:17:16.341Z,22.50
2017-08-12T10:19:43.108Z,22.50
2017-08-12T10:22:09.643Z,22.50
2017-08-12T10:24:36.811Z,22.50
2017-08-12T10:27:03.273Z,22.40
2017-08-12T10:29:29.846Z,22.50
2017-08-12T10:32:11.160Z,22.50
2017-08-12T10:34:37.618Z,22.60
2017-08-12T10:37:04.059Z,22.50
2017-08-12T10:39:30.528Z,22.60
2017-08-12T10:41:57.696Z,22.70
2017-08-12T10:44:24.093Z,22.70
2017-08-12T10:46:51.374Z,22.70
2017-08-12T10:49:17.866Z,22.80
2017-08-12T10:51:44.282Z,22.80
2017-08-12T10:54:10.655Z,22.80
2017-08-12T10:56:37.027Z,22.80
2017-08-12T10:59:03.504Z,22.80
2017-08-12T11:01:29.883Z,22.90
2017-08-12T11:03:56.992Z,23.00
2017-08-12T11:06:23.517Z,23.00
2017-08-12T11:08:50.135Z,23.00
2017-08-12T11:11:16.603Z,23.00
2017-08-12T11:13:43.036Z,23.00
2017-08-12T11:16:09.466Z,23.00
2017-08-12T11:18:35.886Z,23.10
2017-08-12T11:21:02.260Z,23.20
2017-08-12T11:23:29.511Z,23.10
2017-08-12T11:25:56.651Z,23.20
2017-08-12T11:28:23.163Z,23.20
2017-08-12T11:30:49.590Z,23.30
2017-08-12T11:33:15.984Z,23.40
2017-08-12T11:35:42.424Z,23.50
2017-08-12T11:38:08.800Z,23.60
2017-08-12T11:40:35.184Z,23.60
2017-08-12T11:43:01.584Z,23.60
2017-08-12T11:45:27.979Z,23.70
2017-08-12T11:47:54.379Z,23.70
2017-08-12T11:50:20.855Z,23.70
2017-08-12T11:52:47.280Z,23.80
2017-08-12T11:55:13.671Z,23.80
2017-08-12T11:57:40.136Z,23.70
2017-08-12T12:00:07.667Z,23.70
2017-08-12T12:02:34.669Z,23.80
2017-08-12T12:05:01.108Z,23.70
2017-08-12T12:07:27.512Z,23.70
2017-08-12T12:09:54.302Z,23.70
2017-08-12T12:12:20.772Z,23.60
2017-08-12T12:14:47.185Z,23.50
2017-08-12T12:17:13.658Z,23.50
2017-08-12T12:19:41.092Z,23.40
2017-08-12T12:22:08.416Z,23.40
2017-08-12T12:24:34.871Z,23.30
2017-08-12T12:27:01.304Z,23.30
2017-08-12T12:29:27.751Z,23.30
2017-08-12T12:31:54.183Z,23.30
2017-08-12T12:34:25.252Z,23.30
2017-08-12T12:36:52.678Z,23.20
2017-08-12T12:39:19.136Z,23.20
2017-08-12T12:41:45.591Z,23.30
2017-08-12T12:44:11.987Z,23.30
2017-08-12T12:46:38.372Z,23.30
2017-08-12T12:49:05.582Z,23.10
2017-08-12T12:51:31.959Z,23.10
2017-08-12T12:53:59.095Z,23.20
2017-08-12T12:56:25.483Z,23.10
2017-08-12T12:58:51.888Z,23.10
2017-08-12T13:01:18.302Z,23.10
2017-08-12T13:03:45.417Z,23.10
2017-08-12T13:06:11.783Z,23.00
2017-08-12T13:08:38.267Z,23.00
2017-08-12T13:11:04.694Z,23.00
2017-08-12T13:13:31.096Z,23.10
2017-08-12T13:15:57.503Z,23.10
2017-08-12T13:18:24.719Z,23.10
2017-08-12T13:20:51.090Z,23.10
2017-08-12T13:23:18.279Z,23.10
2017-08-12T13:25:44.723Z,23.10
2017-08-12T13:28:11.119Z,23.20
2017-08-12T13:30:38.244Z,23.30
2017-08-12T13:33:04.769Z,23.30
2017-08-12T13:35:31.915Z,23.50
2017-08-12T13:37:58.279Z,23.40
2017-08-12T13:40:25.496Z,23.60
2017-08-12T13:42:52.113Z,23.50
2017-08-12T13:45:18.638Z,23.70
2017-08-12T13:47:45.122Z,23.90
2017-08-12T13:50:12.411Z,24.20
2017-08-12T13:52:38.871Z,24.20
2017-08-12T13:55:05.266Z,24.30
2017-08-12T13:57:32.034Z,24.40
2017-08-12T13:59:58.470Z,24.50
2017-08-12T14:02:25.656Z,24.60
2017-08-12T14:04:52.079Z,24.60
2017-08-12T14:07:18.472Z,24.60
2017-08-12T14:09:44.943Z,24.60
2017-08-12T14:12:11.305Z,24.60
2017-08-12T14:14:38.426Z,24.40
2017-08-12T14:17:04.829Z,24.40
2017-08-12T14:19:31.250Z,24.40
2017-08-12T14:21:57.628Z,24.50
2017-08-12T14:24:24.111Z,24.60
2017-08-12T14:26:50.528Z,24.70
2017-08-12T14:29:17.015Z,24.70
2017-08-12T14:31:43.394Z,24.70
2017-08-12T14:34:10.547Z,24.70
2017-08-12T14:36:36.940Z,24.70
2017-08-12T14:39:03.460Z,24.60
2017-08-12T14:41:30.223Z,24.60
2017-08-12T14:43:56.635Z,24.60
2017-08-12T14:46:23.036Z,24.60
2017-08-12T14:48:49.520Z,24.60
2017-08-12T14:51:15.896Z,24.60
2017-08-12T14:53:42.317Z,24.50
2017-08-12T14:56:15.912Z,24.50
2017-08-12T14:58:43.198Z,24.40
2017-08-12T15:01:09.592Z,24.40
2017-08-12T15:03:36.209Z,24.20
2017-08-12T15:06:02.663Z,24.20
2017-08-12T15:08:29.208Z,24.10
2017-08-12T15:10:55.611Z,24.00
2017-08-12T15:13:22.048Z,24.00
2017-08-12T15:15:48.465Z,23.90
2017-08-12T15:18:14.862Z,23.90
2017-08-12T15:20:41.251Z,23.90
2017-08-12T15:23:07.635Z,23.80
2017-08-12T15:25:34.067Z,23.80
2017-08-12T15:28:00.438Z,23.70
2017-08-12T15:30:26.858Z,23.70
2017-08-12T15:32:53.254Z,23.60
2017-08-12T15:35:19.691Z,23.60
2017-08-12T15:37:46.140Z,23.60
2017-08-12T15:40:12.606Z,23.70
2017-08-12T15:42:38.991Z,23.60
2017-08-12T15:45:05.428Z,23.60
2017-08-12T15:47:31.965Z,23.60
2017-08-12T15:49:58.403Z,23.60
2017-08-12T15:52:24.787Z,23.60
2017-08-12T15:54:51.238Z,23.60
2017-08-12T15:57:17.721Z,23.50
2017-08-12T15:59:44.187Z,23.40
2017-08-12T16:02:11.332Z,23.40
2017-08-12T16:04:37.739Z,23.40
2017-08-12T16:07:04.111Z,23.40
2017-08-12T16:09:31.319Z,23.40
2017-08-12T16:11:57.726Z,23.40
2017-08-12T16:14:24.146Z,23.50
2017-08-12T16:16:50.563Z,23.50
2017-08-12T16:19:17.668Z,23.40
2017-08-12T16:21:44.083Z,23.40
2017-08-12T16:24:10.552Z,23.20
2017-08-12T16:26:36.983Z,23.20
2017-08-12T16:29:03.491Z,23.20
2017-08-12T16:31:29.925Z,23.20
2017-08-12T16:33:56.347Z,23.20
2017-08-12T16:36:22.775Z,23.20
2017-08-12T16:38:49.204Z,23.30
2017-08-12T16:41:15.599Z,23.30
2017-08-12T16:43:42.755Z,23.30
2017-08-12T16:46:09.887Z,23.30
2017-08-12T16:48:37.087Z,23.20
2017-08-12T16:51:03.498Z,23.20
2017-08-12T16:53:36.814Z,23.20
2017-08-12T16:56:03.276Z,23.20
2017-08-12T16:58:29.716Z,23.10
2017-08-12T17:00:56.099Z,23.00
2017-08-12T17:03:22.480Z,22.90
2017-08-12T17:05:48.866Z,22.80
2017-08-12T17:08:15.302Z,22.80
2017-08-12T17:10:41.688Z,22.70
2017-08-12T17:13:08.086Z,22.50
2017-08-12T17:15:34.495Z,22.40
2017-08-12T17:18:00.895Z,22.30
2017-08-12T17:20:27.366Z,22.20
2017-08-12T17:22:53.751Z,22.10
2017-08-12T17:25:20.161Z,22.10
2017-08-12T17:27:46.547Z,22.10
2017-08-12T17:30:13.057Z,22.00
2017-08-12T17:32:39.439Z,22.00
2017-08-12T17:35:05.843Z,21.90
2017-08-12T17:37:32.226Z,21.90
2017-08-12T17:39:58.632Z,21.90
2017-08-12T17:42:25.042Z,21.70
2017-08-12T17:44:51.466Z,21.70
2017-08-12T17:47:17.924Z,21.70
2017-08-12T17:49:44.387Z,21.60
2017-08-12T17:52:10.786Z,21.60
2017-08-12T17:54:37.222Z,21.60
2017-08-12T17:57:03.709Z,21.70
2017-08-12T17:59:30.196Z,21.60
2017-08-12T18:01:56.571Z,21.60
2017-08-12T18:04:22.975Z,21.60
2017-08-12T18:06:49.367Z,21.50
2017-08-12T18:09:15.843Z,21.50
2017-08-12T18:11:42.247Z,21.50
2017-08-12T18:14:08.726Z,21.50
2017-08-12T18:16:35.173Z,21.40
2017-08-12T18:19:01.750Z,21.40
2017-08-12T18:21:28.146Z,21.40
2017-08-12T18:23:54.623Z,21.40
2017-08-12T18:26:21.027Z,21.40
2017-08-12T18:28:48.759Z,21.40
2017-08-12T18:31:15.167Z,21.40
2017-08-12T18:33:41.576Z,21.30
2017-08-12T18:36:08.007Z,21.30
2017-08-12T18:38:34.464Z,21.30
2017-08-12T18:41:00.851Z,21.30
2017-08-12T18:43:28.005Z,21.20
2017-08-12T18:45:55.171Z,21.20
2017-08-12T18:48:21.543Z,21.20
2017-08-12T18:50:47.923Z,21.20
2017-08-12T18:53:14.444Z,21.20
2017-08-12T18:55:41.554Z,21.20
2017-08-12T18:58:07.983Z,21.20
2017-08-12T19:00:34.413Z,21.20
2017-08-12T19:03:00.792Z,21.10
2017-08-12T19:05:27.947Z,21.10
2017-08-12T19:07:55.083Z,21.10
2017-08-12T19:10:22.307Z,21.10
2017-08-12T19:12:48.691Z,21.00
2017-08-12T19:15:15.090Z,21.10
2017-08-12T19:17:41.495Z,21.10
2017-08-12T19:20:07.907Z,21.10
2017-08-12T19:22:34.316Z,21.10
2017-08-12T19:25:00.738Z,21.00
2017-08-12T19:27:27.123Z,21.00
2017-08-12T19:29:53.547Z,21.00
2017-08-12T19:32:19.936Z,21.00
2017-08-12T19:34:47.107Z,21.00
2017-08-12T19:37:14.111Z,21.00
2017-08-12T19:39:40.636Z,20.90
2017-08-12T19:42:07.037Z,20.90
2017-08-12T19:44:33.451Z,20.90
2017-08-12T19:46:59.835Z,20.90
2017-08-12T19:49:26.267Z,20.80
2017-08-12T19:51:53.427Z,20.70
2017-08-12T19:54:19.832Z,20.70
2017-08-12T19:56:46.219Z,20.70
2017-08-12T19:59:12.713Z,20.70
2017-08-12T20:01:39.107Z,20.60
2017-08-12T20:04:05.492Z,20.50
2017-08-12T20:06:31.922Z,20.50
2017-08-12T20:08:58.308Z,20.50
2017-08-12T20:11:24.726Z,20.40
2017-08-12T20:13:51.124Z,20.40
2017-08-12T20:16:17.548Z,20.30
2017-08-12T20:18:44.069Z,20.20
2017-08-12T20:21:10.448Z,20.20
2017-08-12T20:23:37.601Z,20.10
2017-08-12T20:26:04.020Z,20.10
2017-08-12T20:28:31.206Z,20.10
2017-08-12T20:30:57.632Z,20.00
2017-08-12T20:33:31.092Z,20.00
2017-08-12T20:35:57.495Z,20.00
2017-08-12T20:38:23.912Z,20.00
2017-08-12T20:40:50.303Z,20.00
2017-08-12T20:43:17.457Z,20.00
2017-08-12T20:45:44.612Z,20.00
2017-08-12T20:48:11.765Z,20.00
2017-08-12T20:50:38.149Z,19.90
2017-08-12T20:53:04.546Z,20.00
2017-08-12T20:55:31.005Z,19.90
2017-08-12T20:57:57.391Z,19.80
2017-08-12T21:00:23.868Z,19.70
2017-08-12T21:02:50.292Z,19.60
2017-08-12T21:05:16.682Z,19.40
2017-08-12T21:07:43.824Z,19.20
2017-08-12T21:10:11.008Z,19.10
2017-08-12T21:12:37.391Z,19.10
2017-08-12T21:15:03.811Z,19.10
2017-08-12T21:17:30.188Z,19.00
2017-08-12T21:19:56.667Z,19.00
2017-08-12T21:22:23.042Z,18.90
2017-08-12T21:24:49.416Z,18.80
2017-08-12T21:27:15.819Z,18.70
2017-08-12T21:29:42.278Z,18.60
2017-08-12T21:32:08.671Z,18.50
2017-08-12T21:34:35.827Z,18.50
2017-08-12T21:37:02.967Z,18.40
2017-08-12T21:39:29.476Z,18.40
2017-08-12T21:41:55.939Z,18.30
2017-08-12T21:44:22.363Z,18.30
2017-08-12T21:46:48.743Z,18.20
2017-08-12T21:49:15.183Z,18.10
2017-08-12T21:51:41.559Z,18.10
2017-08-12T21:54:07.983Z,18.00
2017-08-12T21:56:34.390Z,17.80
2017-08-12T21:59:00.791Z,17.80
2017-08-12T22:01:27.204Z,17.80
2017-08-12T22:03:54.364Z,17.70
2017-08-12T22:06:20.731Z,17.70
2017-08-12T22:08:47.151Z,17.60
2017-08-12T22:11:13.560Z,17.60
2017-08-12T22:13:39.978Z,17.60
2017-08-12T22:16:07.104Z,17.50
2017-08-12T22:18:33.628Z,17.50
2017-08-12T22:21:00.019Z,17.50
2017-08-12T22:23:26.431Z,17.50
2017-08-12T22:25:53.563Z,17.40
2017-08-12T22:28:19.995Z,17.30
2017-08-12T22:30:46.371Z,17.40
2017-08-12T22:33:12.780Z,17.40
2017-08-12T22:35:39.169Z,17.30
2017-08-12T22:38:05.554Z,17.30
2017-08-12T22:40:32.032Z,17.20
2017-08-12T22:42:58.411Z,17.20
2017-08-12T22:45:24.852Z,17.20
2017-08-12T22:47:51.227Z,17.20
2017-08-12T22:50:17.667Z,17.10
2017-08-12T22:52:44.075Z,17.10
2017-08-12T22:55:10.518Z,17.10
2017-08-12T22:57:36.930Z,17.10
2017-08-12T23:00:03.374Z,17.10
2017-08-12T23:02:29.816Z,17.10
2017-08-12T23:04:56.233Z,17.00
2017-08-12T23:07:22.645Z,17.00
2017-08-12T23:09:49.123Z,17.00
2017-08-12T23:12:15.498Z,17.00
2017-08-12T23:14:41.927Z,16.90
2017-08-12T23:17:09.044Z,16.90
2017-08-12T23:19:35.445Z,16.90
2017-08-12T23:22:01.915Z,16.80
2017-08-12T23:24:28.294Z,16.80
2017-08-12T23:26:54.691Z,16.80
2017-08-12T23:29:21.195Z,16.80
2017-08-12T23:31:47.611Z,16.80
2017-08-12T23:34:14.013Z,16.60
2017-08-12T23:36:41.155Z,16.70
2017-08-12T23:39:08.376Z,16.70
2017-08-12T23:41:34.764Z,16.70
2017-08-12T23:44:01.127Z,16.70
2017-08-12T23:46:27.546Z,16.70
2017-08-12T23:48:54.011Z,16.70
2017-08-12T23:51:20.380Z,16.60
2017-08-12T23:53:46.767Z,16.60
2017-08-12T23:56:13.151Z,16.60
2017-08-12T23:58:39.611Z,16.60
